Terminal Aerodrome Forecast
Issued by NWS

Home | Current Version | Previous Version | Text Only | Print | Product List | Glossary On
Versions: 1 2 3 4 5 6 7 8 9 10 11 12 13 14
000
FTAK31 PAJN 181700
TAFAWG
TAF
PAWG 181721Z 1818/1918 09010KT P6SM VCSH SCT025 OVC045
     FM182000 11013G21KT P6SM -RA SCT025 OVC035
     FM190100 12012G20KT 5SM -RA BR BKN025 OVC040
     FM190600 12007KT 4SM -RA BR BKN020 OVC040
     FM191100 12012G15KT P6SM VCSH BKN035 OVC045
     FM191300 12012G15KT P6SM BKN040 OVC045
      AMD LTD TO CLD VIS AND WIND 1906/1915=

USA.gov is the U.S. government's official web portal to all federal, state and local government web resources and services.